sensor_id;sensor_type;location;lat;lon;timestamp;P1;durP1;ratioP1;P2;durP2;ratioP2
72087;SDS011;59961;50.232;8.616;2022-11-15T00:01:17;12.57;;;6.87;;
72087;SDS011;59961;50.232;8.616;2022-11-15T00:03:42;11.50;;;6.07;;
72087;SDS011;59961;50.232;8.616;2022-11-15T00:06:08;14.23;;;6.87;;
72087;SDS011;59961;50.232;8.616;2022-11-15T00:08:33;13.20;;;6.47;;
72087;SDS011;59961;50.232;8.616;2022-11-15T00:10:59;12.97;;;6.30;;
72087;SDS011;59961;50.232;8.616;2022-11-15T00:13:25;11.18;;;6.15;;
72087;SDS011;59961;50.232;8.616;2022-11-15T00:15:50;12.63;;;6.30;;
72087;SDS011;59961;50.232;8.616;2022-11-15T00:18:15;13.00;;;6.63;;
72087;SDS011;59961;50.232;8.616;2022-11-15T00:20:41;15.43;;;6.18;;
72087;SDS011;59961;50.232;8.616;2022-11-15T00:23:06;11.23;;;6.70;;
72087;SDS011;59961;50.232;8.616;2022-11-15T00:25:32;16.50;;;6.10;;
72087;SDS011;59961;50.232;8.616;2022-11-15T00:27:57;12.95;;;6.18;;
72087;SDS011;59961;50.232;8.616;2022-11-15T00:30:23;13.50;;;5.70;;
72087;SDS011;59961;50.232;8.616;2022-11-15T00:32:49;15.20;;;6.20;;
72087;SDS011;59961;50.232;8.616;2022-11-15T00:35:14;13.87;;;6.13;;
72087;SDS011;59961;50.232;8.616;2022-11-15T00:37:39;11.90;;;5.70;;
72087;SDS011;59961;50.232;8.616;2022-11-15T00:40:05;12.87;;;5.93;;
72087;SDS011;59961;50.232;8.616;2022-11-15T00:42:30;11.57;;;5.97;;
72087;SDS011;59961;50.232;8.616;2022-11-15T00:44:55;12.27;;;6.20;;
72087;SDS011;59961;50.232;8.616;2022-11-15T00:47:20;10.87;;;5.77;;
72087;SDS011;59961;50.232;8.616;2022-11-15T00:49:45;13.65;;;6.28;;
72087;SDS011;59961;50.232;8.616;2022-11-15T00:52:11;11.70;;;5.90;;
72087;SDS011;59961;50.232;8.616;2022-11-15T00:54:36;13.40;;;5.83;;
72087;SDS011;59961;50.232;8.616;2022-11-15T00:57:01;11.90;;;5.20;;
72087;SDS011;59961;50.232;8.616;2022-11-15T00:59:26;12.93;;;5.87;;
72087;SDS011;59961;50.232;8.616;2022-11-15T01:01:51;13.23;;;5.93;;
72087;SDS011;59961;50.232;8.616;2022-11-15T01:04:16;12.07;;;6.28;;
72087;SDS011;59961;50.232;8.616;2022-11-15T01:06:41;11.60;;;6.03;;
72087;SDS011;59961;50.232;8.616;2022-11-15T01:09:07;11.53;;;5.57;;
72087;SDS011;59961;50.232;8.616;2022-11-15T01:11:32;9.85;;;5.43;;
72087;SDS011;59961;50.232;8.616;2022-11-15T01:13:57;13.03;;;6.33;;
72087;SDS011;59961;50.232;8.616;2022-11-15T01:16:22;10.37;;;5.80;;
72087;SDS011;59961;50.232;8.616;2022-11-15T01:18:47;15.50;;;5.93;;
72087;SDS011;59961;50.232;8.616;2022-11-15T01:21:14;12.30;;;5.47;;
72087;SDS011;59961;50.232;8.616;2022-11-15T01:23:40;9.85;;;5.57;;
72087;SDS011;59961;50.232;8.616;2022-11-15T01:26:06;11.37;;;6.13;;
72087;SDS011;59961;50.232;8.616;2022-11-15T01:28:32;12.45;;;6.00;;
72087;SDS011;59961;50.232;8.616;2022-11-15T01:30:59;13.30;;;6.30;;
72087;SDS011;59961;50.232;8.616;2022-11-15T01:33:24;15.20;;;6.03;;
72087;SDS011;59961;50.232;8.616;2022-11-15T01:35:49;11.68;;;5.28;;
72087;SDS011;59961;50.232;8.616;2022-11-15T01:38:15;10.97;;;5.43;;
72087;SDS011;59961;50.232;8.616;2022-11-15T01:40:41;11.97;;;5.50;;
72087;SDS011;59961;50.232;8.616;2022-11-15T01:43:19;12.00;;;6.07;;
72087;SDS011;59961;50.232;8.616;2022-11-15T01:45:45;12.60;;;5.97;;
72087;SDS011;59961;50.232;8.616;2022-11-15T01:48:11;10.77;;;5.90;;
72087;SDS011;59961;50.232;8.616;2022-11-15T01:50:36;12.43;;;6.07;;
72087;SDS011;59961;50.232;8.616;2022-11-15T01:53:01;13.40;;;6.50;;
72087;SDS011;59961;50.232;8.616;2022-11-15T01:55:26;12.50;;;5.83;;
72087;SDS011;59961;50.232;8.616;2022-11-15T01:57:53;12.13;;;6.43;;
72087;SDS011;59961;50.232;8.616;2022-11-15T02:00:20;11.05;;;5.60;;
72087;SDS011;59961;50.232;8.616;2022-11-15T02:02:45;13.10;;;6.30;;
72087;SDS011;59961;50.232;8.616;2022-11-15T02:05:10;10.67;;;5.80;;
72087;SDS011;59961;50.232;8.616;2022-11-15T02:07:36;11.47;;;6.03;;
72087;SDS011;59961;50.232;8.616;2022-11-15T02:10:03;12.63;;;5.97;;
72087;SDS011;59961;50.232;8.616;2022-11-15T02:12:30;13.73;;;5.82;;
72087;SDS011;59961;50.232;8.616;2022-11-15T02:14:55;12.23;;;6.27;;
72087;SDS011;59961;50.232;8.616;2022-11-15T02:17:37;14.32;;;6.38;;
72087;SDS011;59961;50.232;8.616;2022-11-15T02:20:18;13.80;;;6.70;;
72087;SDS011;59961;50.232;8.616;2022-11-15T02:25:28;11.60;;;5.75;;
72087;SDS011;59961;50.232;8.616;2022-11-15T02:28:04;10.40;;;5.75;;
72087;SDS011;59961;50.232;8.616;2022-11-15T02:31:17;12.85;;;6.03;;
72087;SDS011;59961;50.232;8.616;2022-11-15T02:33:24;11.70;;;5.80;;
72087;SDS011;59961;50.232;8.616;2022-11-15T02:41:30;10.85;;;5.35;;
72087;SDS011;59961;50.232;8.616;2022-11-15T02:43:40;11.70;;;5.80;;
72087;SDS011;59961;50.232;8.616;2022-11-15T02:49:27;9.60;;;5.17;;
72087;SDS011;59961;50.232;8.616;2022-11-15T02:51:53;10.18;;;5.30;;
72087;SDS011;59961;50.232;8.616;2022-11-15T02:54:20;10.88;;;5.47;;
72087;SDS011;59961;50.232;8.616;2022-11-15T02:56:47;11.07;;;4.80;;
72087;SDS011;59961;50.232;8.616;2022-11-15T03:09:21;9.35;;;5.65;;
72087;SDS011;59961;50.232;8.616;2022-11-15T03:11:50;13.90;;;5.23;;
72087;SDS011;59961;50.232;8.616;2022-11-15T03:14:19;11.07;;;5.65;;
72087;SDS011;59961;50.232;8.616;2022-11-15T03:16:48;11.23;;;5.38;;
72087;SDS011;59961;50.232;8.616;2022-11-15T03:19:35;12.75;;;5.38;;
72087;SDS011;59961;50.232;8.616;2022-11-15T03:22:04;10.35;;;5.07;;
72087;SDS011;59961;50.232;8.616;2022-11-15T03:24:31;11.57;;;5.30;;
72087;SDS011;59961;50.232;8.616;2022-11-15T03:26:58;12.57;;;5.68;;
72087;SDS011;59961;50.232;8.616;2022-11-15T03:29:26;10.80;;;5.38;;
72087;SDS011;59961;50.232;8.616;2022-11-15T03:31:54;9.57;;;4.75;;
72087;SDS011;59961;50.232;8.616;2022-11-15T03:34:35;11.07;;;4.82;;
72087;SDS011;59961;50.232;8.616;2022-11-15T03:37:02;9.00;;;4.63;;
72087;SDS011;59961;50.232;8.616;2022-11-15T03:39:27;10.57;;;5.10;;
72087;SDS011;59961;50.232;8.616;2022-11-15T03:41:57;10.07;;;5.18;;
72087;SDS011;59961;50.232;8.616;2022-11-15T03:44:46;10.48;;;5.50;;
72087;SDS011;59961;50.232;8.616;2022-11-15T03:47:18;9.52;;;4.90;;
72087;SDS011;59961;50.232;8.616;2022-11-15T03:49:46;12.97;;;5.67;;
72087;SDS011;59961;50.232;8.616;2022-11-15T03:52:14;11.05;;;5.07;;
72087;SDS011;59961;50.232;8.616;2022-11-15T03:54:49;9.93;;;4.63;;
72087;SDS011;59961;50.232;8.616;2022-11-15T03:57:14;11.25;;;4.88;;
72087;SDS011;59961;50.232;8.616;2022-11-15T03:59:40;10.30;;;4.93;;
72087;SDS011;59961;50.232;8.616;2022-11-15T04:02:05;9.70;;;5.07;;
72087;SDS011;59961;50.232;8.616;2022-11-15T04:04:30;10.50;;;5.20;;
72087;SDS011;59961;50.232;8.616;2022-11-15T04:06:55;10.57;;;5.32;;
72087;SDS011;59961;50.232;8.616;2022-11-15T04:09:20;12.70;;;5.03;;
72087;SDS011;59961;50.232;8.616;2022-11-15T04:11:45;10.82;;;4.68;;
72087;SDS011;59961;50.232;8.616;2022-11-15T04:14:11;12.73;;;6.00;;
72087;SDS011;59961;50.232;8.616;2022-11-15T04:16:36;10.50;;;5.47;;
72087;SDS011;59961;50.232;8.616;2022-11-15T04:19:01;10.73;;;5.07;;
72087;SDS011;59961;50.232;8.616;2022-11-15T04:21:45;10.65;;;5.28;;
72087;SDS011;59961;50.232;8.616;2022-11-15T04:24:29;12.17;;;4.57;;
72087;SDS011;59961;50.232;8.616;2022-11-15T04:26:54;9.23;;;5.07;;
72087;SDS011;59961;50.232;8.616;2022-11-15T04:29:19;9.13;;;4.75;;
72087;SDS011;59961;50.232;8.616;2022-11-15T04:32:00;10.32;;;4.40;;
72087;SDS011;59961;50.232;8.616;2022-11-15T04:34:25;10.90;;;5.32;;
72087;SDS011;59961;50.232;8.616;2022-11-15T04:36:50;9.43;;;4.90;;
72087;SDS011;59961;50.232;8.616;2022-11-15T04:39:34;10.73;;;5.18;;
72087;SDS011;59961;50.232;8.616;2022-11-15T04:41:59;8.87;;;4.57;;
72087;SDS011;59961;50.232;8.616;2022-11-15T04:44:24;10.73;;;4.33;;
72087;SDS011;59961;50.232;8.616;2022-11-15T04:46:50;10.13;;;5.45;;
72087;SDS011;59961;50.232;8.616;2022-11-15T04:49:15;9.17;;;4.90;;
72087;SDS011;59961;50.232;8.616;2022-11-15T04:51:40;11.10;;;5.13;;
72087;SDS011;59961;50.232;8.616;2022-11-15T04:54:05;10.53;;;4.93;;
72087;SDS011;59961;50.232;8.616;2022-11-15T04:56:30;10.20;;;5.13;;
72087;SDS011;59961;50.232;8.616;2022-11-15T04:58:55;17.50;;;5.47;;
72087;SDS011;59961;50.232;8.616;2022-11-15T05:01:21;10.43;;;5.30;;
72087;SDS011;59961;50.232;8.616;2022-11-15T05:03:46;11.60;;;5.32;;
72087;SDS011;59961;50.232;8.616;2022-11-15T05:06:29;11.23;;;6.15;;
72087;SDS011;59961;50.232;8.616;2022-11-15T05:08:55;13.37;;;6.17;;
72087;SDS011;59961;50.232;8.616;2022-11-15T05:11:21;11.13;;;5.40;;
72087;SDS011;59961;50.232;8.616;2022-11-15T05:13:46;12.90;;;5.03;;
72087;SDS011;59961;50.232;8.616;2022-11-15T05:16:11;11.40;;;5.57;;
72087;SDS011;59961;50.232;8.616;2022-11-15T05:18:36;11.27;;;5.30;;
72087;SDS011;59961;50.232;8.616;2022-11-15T05:21:05;11.30;;;5.70;;
72087;SDS011;59961;50.232;8.616;2022-11-15T05:23:30;11.85;;;5.28;;
72087;SDS011;59961;50.232;8.616;2022-11-15T05:25:58;10.53;;;5.77;;
72087;SDS011;59961;50.232;8.616;2022-11-15T05:28:24;12.20;;;5.70;;
72087;SDS011;59961;50.232;8.616;2022-11-15T05:30:49;10.35;;;5.70;;
72087;SDS011;59961;50.232;8.616;2022-11-15T05:33:14;12.70;;;5.95;;
72087;SDS011;59961;50.232;8.616;2022-11-15T05:35:40;11.53;;;5.03;;
72087;SDS011;59961;50.232;8.616;2022-11-15T05:38:06;12.65;;;5.38;;
72087;SDS011;59961;50.232;8.616;2022-11-15T05:40:32;11.77;;;5.95;;
72087;SDS011;59961;50.232;8.616;2022-11-15T05:42:57;11.30;;;5.70;;
72087;SDS011;59961;50.232;8.616;2022-11-15T05:45:24;11.77;;;5.78;;
72087;SDS011;59961;50.232;8.616;2022-11-15T05:47:49;12.13;;;5.73;;
72087;SDS011;59961;50.232;8.616;2022-11-15T05:50:15;10.48;;;5.05;;
72087;SDS011;59961;50.232;8.616;2022-11-15T05:52:41;9.63;;;5.17;;
72087;SDS011;59961;50.232;8.616;2022-11-15T05:55:08;10.82;;;5.30;;
72087;SDS011;59961;50.232;8.616;2022-11-15T05:57:34;11.77;;;5.82;;
72087;SDS011;59961;50.232;8.616;2022-11-15T05:59:59;9.87;;;5.13;;
72087;SDS011;59961;50.232;8.616;2022-11-15T06:02:25;9.63;;;5.10;;
72087;SDS011;59961;50.232;8.616;2022-11-15T06:04:50;13.77;;;5.93;;
72087;SDS011;59961;50.232;8.616;2022-11-15T06:07:18;12.53;;;5.90;;
72087;SDS011;59961;50.232;8.616;2022-11-15T06:09:43;13.20;;;6.10;;
72087;SDS011;59961;50.232;8.616;2022-11-15T06:12:08;10.43;;;5.37;;
72087;SDS011;59961;50.232;8.616;2022-11-15T06:14:33;11.47;;;5.50;;
72087;SDS011;59961;50.232;8.616;2022-11-15T06:16:59;11.20;;;5.60;;
72087;SDS011;59961;50.232;8.616;2022-11-15T06:19:24;13.35;;;5.60;;
72087;SDS011;59961;50.232;8.616;2022-11-15T06:21:49;10.65;;;5.88;;
72087;SDS011;59961;50.232;8.616;2022-11-15T06:24:14;13.55;;;6.60;;
72087;SDS011;59961;50.232;8.616;2022-11-15T06:26:39;10.67;;;5.97;;
72087;SDS011;59961;50.232;8.616;2022-11-15T06:29:06;13.15;;;6.05;;
72087;SDS011;59961;50.232;8.616;2022-11-15T06:31:31;10.97;;;6.03;;
72087;SDS011;59961;50.232;8.616;2022-11-15T06:33:56;13.67;;;6.73;;
72087;SDS011;59961;50.232;8.616;2022-11-15T06:36:21;12.33;;;6.40;;
72087;SDS011;59961;50.232;8.616;2022-11-15T06:38:46;10.47;;;6.43;;
72087;SDS011;59961;50.232;8.616;2022-11-15T06:41:12;11.33;;;6.80;;
72087;SDS011;59961;50.232;8.616;2022-11-15T06:43:38;12.00;;;6.05;;
72087;SDS011;59961;50.232;8.616;2022-11-15T06:46:04;11.32;;;6.18;;
72087;SDS011;59961;50.232;8.616;2022-11-15T06:48:30;11.83;;;6.03;;
72087;SDS011;59961;50.232;8.616;2022-11-15T06:50:57;10.65;;;6.20;;
72087;SDS011;59961;50.232;8.616;2022-11-15T06:53:22;12.40;;;6.15;;
72087;SDS011;59961;50.232;8.616;2022-11-15T06:55:47;10.43;;;5.47;;
72087;SDS011;59961;50.232;8.616;2022-11-15T06:58:13;12.53;;;6.10;;
72087;SDS011;59961;50.232;8.616;2022-11-15T07:00:38;11.13;;;5.67;;
72087;SDS011;59961;50.232;8.616;2022-11-15T07:03:03;12.23;;;6.47;;
72087;SDS011;59961;50.232;8.616;2022-11-15T07:05:28;11.47;;;6.07;;
72087;SDS011;59961;50.232;8.616;2022-11-15T07:07:54;14.47;;;5.80;;
72087;SDS011;59961;50.232;8.616;2022-11-15T07:10:20;12.20;;;6.35;;
72087;SDS011;59961;50.232;8.616;2022-11-15T07:12:47;11.70;;;5.95;;
72087;SDS011;59961;50.232;8.616;2022-11-15T07:15:12;11.70;;;6.78;;
72087;SDS011;59961;50.232;8.616;2022-11-15T07:17:37;11.47;;;5.60;;
72087;SDS011;59961;50.232;8.616;2022-11-15T07:20:02;12.80;;;6.10;;
72087;SDS011;59961;50.232;8.616;2022-11-15T07:22:28;12.70;;;6.30;;
72087;SDS011;59961;50.232;8.616;2022-11-15T07:24:53;11.30;;;5.80;;
72087;SDS011;59961;50.232;8.616;2022-11-15T07:27:18;11.43;;;6.03;;
72087;SDS011;59961;50.232;8.616;2022-11-15T07:29:44;10.87;;;6.17;;
72087;SDS011;59961;50.232;8.616;2022-11-15T07:32:09;11.73;;;5.43;;
72087;SDS011;59961;50.232;8.616;2022-11-15T07:34:34;10.20;;;5.50;;
72087;SDS011;59961;50.232;8.616;2022-11-15T07:36:59;12.45;;;5.55;;
72087;SDS011;59961;50.232;8.616;2022-11-15T07:39:25;11.93;;;5.97;;
72087;SDS011;59961;50.232;8.616;2022-11-15T07:41:50;14.13;;;7.00;;
72087;SDS011;59961;50.232;8.616;2022-11-15T07:44:35;13.17;;;6.00;;
72087;SDS011;59961;50.232;8.616;2022-11-15T07:47:00;12.20;;;5.93;;
72087;SDS011;59961;50.232;8.616;2022-11-15T07:49:25;12.50;;;5.93;;
72087;SDS011;59961;50.232;8.616;2022-11-15T07:51:51;11.83;;;5.83;;
72087;SDS011;59961;50.232;8.616;2022-11-15T07:54:16;17.87;;;6.63;;
72087;SDS011;59961;50.232;8.616;2022-11-15T07:56:41;12.07;;;6.10;;
72087;SDS011;59961;50.232;8.616;2022-11-15T07:59:06;11.57;;;5.73;;
72087;SDS011;59961;50.232;8.616;2022-11-15T08:01:32;14.33;;;6.87;;
72087;SDS011;59961;50.232;8.616;2022-11-15T08:03:57;16.30;;;8.73;;
72087;SDS011;59961;50.232;8.616;2022-11-15T08:06:22;18.90;;;10.15;;
72087;SDS011;59961;50.232;8.616;2022-11-15T08:08:47;17.83;;;10.00;;
72087;SDS011;59961;50.232;8.616;2022-11-15T08:11:12;13.60;;;7.20;;
72087;SDS011;59961;50.232;8.616;2022-11-15T08:13:38;12.20;;;6.20;;
72087;SDS011;59961;50.232;8.616;2022-11-15T08:16:03;10.87;;;6.33;;
72087;SDS011;59961;50.232;8.616;2022-11-15T08:18:30;12.88;;;7.63;;
72087;SDS011;59961;50.232;8.616;2022-11-15T08:20:58;11.63;;;6.13;;
72087;SDS011;59961;50.232;8.616;2022-11-15T08:23:23;13.57;;;5.90;;
72087;SDS011;59961;50.232;8.616;2022-11-15T08:25:48;12.87;;;5.47;;
72087;SDS011;59961;50.232;8.616;2022-11-15T08:28:15;14.27;;;7.03;;
72087;SDS011;59961;50.232;8.616;2022-11-15T08:30:41;13.37;;;6.73;;
72087;SDS011;59961;50.232;8.616;2022-11-15T08:33:09;14.80;;;9.30;;
72087;SDS011;59961;50.232;8.616;2022-11-15T08:35:35;19.02;;;9.75;;
72087;SDS011;59961;50.232;8.616;2022-11-15T08:38:00;15.87;;;9.53;;
72087;SDS011;59961;50.232;8.616;2022-11-15T08:40:25;13.53;;;7.40;;
72087;SDS011;59961;50.232;8.616;2022-11-15T08:42:51;12.90;;;7.22;;
72087;SDS011;59961;50.232;8.616;2022-11-15T08:45:17;12.20;;;7.60;;
72087;SDS011;59961;50.232;8.616;2022-11-15T08:47:42;10.70;;;6.63;;
72087;SDS011;59961;50.232;8.616;2022-11-15T08:50:07;21.93;;;11.73;;
72087;SDS011;59961;50.232;8.616;2022-11-15T08:52:36;24.70;;;15.88;;
72087;SDS011;59961;50.232;8.616;2022-11-15T08:55:01;17.13;;;9.00;;
72087;SDS011;59961;50.232;8.616;2022-11-15T08:57:30;26.03;;;12.97;;
72087;SDS011;59961;50.232;8.616;2022-11-15T08:59:56;17.23;;;9.60;;
72087;SDS011;59961;50.232;8.616;2022-11-15T09:02:22;15.97;;;8.17;;
72087;SDS011;59961;50.232;8.616;2022-11-15T09:04:48;16.63;;;7.45;;
72087;SDS011;59961;50.232;8.616;2022-11-15T09:07:13;24.87;;;14.83;;
72087;SDS011;59961;50.232;8.616;2022-11-15T09:09:39;16.07;;;9.00;;
72087;SDS011;59961;50.232;8.616;2022-11-15T09:12:09;15.82;;;8.15;;
72087;SDS011;59961;50.232;8.616;2022-11-15T09:14:35;10.77;;;5.28;;
72087;SDS011;59961;50.232;8.616;2022-11-15T09:17:00;16.57;;;7.70;;
72087;SDS011;59961;50.232;8.616;2022-11-15T09:19:26;12.17;;;5.40;;
72087;SDS011;59961;50.232;8.616;2022-11-15T09:21:51;13.88;;;5.45;;
72087;SDS011;59961;50.232;8.616;2022-11-15T09:24:16;13.40;;;6.50;;
72087;SDS011;59961;50.232;8.616;2022-11-15T09:26:42;15.70;;;6.93;;
72087;SDS011;59961;50.232;8.616;2022-11-15T09:29:07;11.97;;;6.80;;
72087;SDS011;59961;50.232;8.616;2022-11-15T09:31:33;10.27;;;5.57;;
72087;SDS011;59961;50.232;8.616;2022-11-15T09:33:58;10.80;;;4.87;;
72087;SDS011;59961;50.232;8.616;2022-11-15T09:36:23;15.10;;;6.47;;
72087;SDS011;59961;50.232;8.616;2022-11-15T09:38:48;11.10;;;5.60;;
72087;SDS011;59961;50.232;8.616;2022-11-15T09:43:42;10.53;;;5.87;;
72087;SDS011;59961;50.232;8.616;2022-11-15T09:46:15;11.55;;;6.03;;
72087;SDS011;59961;50.232;8.616;2022-11-15T09:48:48;11.77;;;6.03;;
72087;SDS011;59961;50.232;8.616;2022-11-15T09:51:16;11.20;;;6.00;;
72087;SDS011;59961;50.232;8.616;2022-11-15T09:53:52;27.20;;;7.15;;
72087;SDS011;59961;50.232;8.616;2022-11-15T09:56:20;17.20;;;5.88;;
72087;SDS011;59961;50.232;8.616;2022-11-15T09:58:55;12.43;;;5.75;;
72087;SDS011;59961;50.232;8.616;2022-11-15T10:04:08;11.25;;;6.50;;
72087;SDS011;59961;50.232;8.616;2022-11-15T10:06:34;11.40;;;6.50;;
72087;SDS011;59961;50.232;8.616;2022-11-15T10:09:13;11.57;;;6.50;;
72087;SDS011;59961;50.232;8.616;2022-11-15T10:11:40;10.65;;;5.90;;
72087;SDS011;59961;50.232;8.616;2022-11-15T10:14:10;14.53;;;7.00;;
72087;SDS011;59961;50.232;8.616;2022-11-15T10:19:23;10.55;;;6.47;;
72087;SDS011;59961;50.232;8.616;2022-11-15T10:22:11;11.70;;;5.93;;
72087;SDS011;59961;50.232;8.616;2022-11-15T10:24:40;10.60;;;5.75;;
72087;SDS011;59961;50.232;8.616;2022-11-15T10:27:10;14.00;;;6.75;;
72087;SDS011;59961;50.232;8.616;2022-11-15T10:29:36;9.80;;;5.65;;
72087;SDS011;59961;50.232;8.616;2022-11-15T10:32:06;14.43;;;6.57;;
72087;SDS011;59961;50.232;8.616;2022-11-15T10:34:35;13.53;;;6.70;;
72087;SDS011;59961;50.232;8.616;2022-11-15T10:37:00;11.43;;;5.80;;
72087;SDS011;59961;50.232;8.616;2022-11-15T10:39:27;12.98;;;6.30;;
72087;SDS011;59961;50.232;8.616;2022-11-15T10:41:52;10.83;;;6.50;;
72087;SDS011;59961;50.232;8.616;2022-11-15T10:44:21;14.37;;;6.50;;
72087;SDS011;59961;50.232;8.616;2022-11-15T10:46:48;15.23;;;6.37;;
72087;SDS011;59961;50.232;8.616;2022-11-15T10:49:19;12.60;;;7.30;;
72087;SDS011;59961;50.232;8.616;2022-11-15T10:54:10;12.10;;;6.75;;
72087;SDS011;59961;50.232;8.616;2022-11-15T10:56:36;14.15;;;6.70;;
72087;SDS011;59961;50.232;8.616;2022-11-15T10:59:02;13.50;;;7.03;;
72087;SDS011;59961;50.232;8.616;2022-11-15T11:01:28;12.60;;;6.88;;
72087;SDS011;59961;50.232;8.616;2022-11-15T11:06:23;15.97;;;6.47;;
72087;SDS011;59961;50.232;8.616;2022-11-15T11:08:53;11.77;;;6.07;;
72087;SDS011;59961;50.232;8.616;2022-11-15T11:11:18;12.63;;;6.68;;
72087;SDS011;59961;50.232;8.616;2022-11-15T11:13:44;13.90;;;6.60;;
72087;SDS011;59961;50.232;8.616;2022-11-15T11:18:43;10.63;;;5.70;;
72087;SDS011;59961;50.232;8.616;2022-11-15T11:21:13;13.13;;;6.55;;
72087;SDS011;59961;50.232;8.616;2022-11-15T11:23:52;12.05;;;6.47;;
72087;SDS011;59961;50.232;8.616;2022-11-15T11:26:31;12.43;;;6.07;;
72087;SDS011;59961;50.232;8.616;2022-11-15T11:29:10;11.35;;;6.28;;
72087;SDS011;59961;50.232;8.616;2022-11-15T11:39:26;12.32;;;6.82;;
72087;SDS011;59961;50.232;8.616;2022-11-15T11:47:24;11.35;;;6.20;;
72087;SDS011;59961;50.232;8.616;2022-11-15T11:50:00;9.93;;;5.80;;
72087;SDS011;59961;50.232;8.616;2022-11-15T11:52:33;11.20;;;5.85;;
72087;SDS011;59961;50.232;8.616;2022-11-15T11:55:21;11.55;;;5.75;;
72087;SDS011;59961;50.232;8.616;2022-11-15T12:00:33;11.02;;;6.43;;
72087;SDS011;59961;50.232;8.616;2022-11-15T12:05:27;13.85;;;6.65;;
72087;SDS011;59961;50.232;8.616;2022-11-15T12:07:54;12.70;;;6.35;;
72087;SDS011;59961;50.232;8.616;2022-11-15T12:10:26;10.77;;;6.07;;
72087;SDS011;59961;50.232;8.616;2022-11-15T12:12:55;11.93;;;5.57;;
72087;SDS011;59961;50.232;8.616;2022-11-15T12:15:31;11.15;;;5.85;;
72087;SDS011;59961;50.232;8.616;2022-11-15T12:17:57;9.55;;;4.68;;
72087;SDS011;59961;50.232;8.616;2022-11-15T12:20:25;12.60;;;5.25;;
72087;SDS011;59961;50.232;8.616;2022-11-15T12:23:48;8.85;;;4.10;;
72087;SDS011;59961;50.232;8.616;2022-11-15T12:31:00;8.52;;;4.40;;
72087;SDS011;59961;50.232;8.616;2022-11-15T12:33:38;8.68;;;4.20;;
72087;SDS011;59961;50.232;8.616;2022-11-15T12:36:50;8.32;;;4.68;;
72087;SDS011;59961;50.232;8.616;2022-11-15T12:41:25;7.35;;;4.22;;
72087;SDS011;59961;50.232;8.616;2022-11-15T12:43:51;6.60;;;3.75;;
72087;SDS011;59961;50.232;8.616;2022-11-15T12:48:49;7.15;;;3.60;;
72087;SDS011;59961;50.232;8.616;2022-11-15T12:51:15;7.45;;;3.58;;
72087;SDS011;59961;50.232;8.616;2022-11-15T12:53:40;10.50;;;4.00;;
72087;SDS011;59961;50.232;8.616;2022-11-15T13:01:57;8.70;;;3.77;;
72087;SDS011;59961;50.232;8.616;2022-11-15T13:06:44;9.45;;;3.78;;
72087;SDS011;59961;50.232;8.616;2022-11-15T13:11:55;7.57;;;4.32;;
72087;SDS011;59961;50.232;8.616;2022-11-15T13:17:02;9.43;;;4.32;;
72087;SDS011;59961;50.232;8.616;2022-11-15T13:19:27;8.02;;;3.90;;
72087;SDS011;59961;50.232;8.616;2022-11-15T13:21:53;8.18;;;4.18;;
72087;SDS011;59961;50.232;8.616;2022-11-15T13:24:37;11.60;;;4.83;;
72087;SDS011;59961;50.232;8.616;2022-11-15T13:27:10;8.60;;;4.55;;
72087;SDS011;59961;50.232;8.616;2022-11-15T13:29:38;11.77;;;4.68;;
72087;SDS011;59961;50.232;8.616;2022-11-15T13:32:10;9.27;;;4.82;;
72087;SDS011;59961;50.232;8.616;2022-11-15T13:34:38;9.98;;;4.55;;
72087;SDS011;59961;50.232;8.616;2022-11-15T13:37:03;10.23;;;4.87;;
72087;SDS011;59961;50.232;8.616;2022-11-15T13:39:30;10.20;;;5.00;;
72087;SDS011;59961;50.232;8.616;2022-11-15T13:41:55;11.35;;;5.18;;
72087;SDS011;59961;50.232;8.616;2022-11-15T13:44:30;9.10;;;5.03;;
72087;SDS011;59961;50.232;8.616;2022-11-15T13:49:31;9.60;;;5.17;;
72087;SDS011;59961;50.232;8.616;2022-11-15T13:51:57;9.18;;;4.80;;
72087;SDS011;59961;50.232;8.616;2022-11-15T13:56:54;9.70;;;5.20;;
72087;SDS011;59961;50.232;8.616;2022-11-15T13:59:25;9.25;;;5.30;;
72087;SDS011;59961;50.232;8.616;2022-11-15T14:01:51;12.18;;;5.80;;
72087;SDS011;59961;50.232;8.616;2022-11-15T14:04:18;9.87;;;5.13;;
72087;SDS011;59961;50.232;8.616;2022-11-15T14:06:45;10.55;;;5.28;;
72087;SDS011;59961;50.232;8.616;2022-11-15T14:11:37;13.00;;;5.40;;
72087;SDS011;59961;50.232;8.616;2022-11-15T14:14:14;9.27;;;5.35;;
72087;SDS011;59961;50.232;8.616;2022-11-15T14:19:36;9.00;;;4.80;;
72087;SDS011;59961;50.232;8.616;2022-11-15T14:24:47;11.15;;;4.95;;
72087;SDS011;59961;50.232;8.616;2022-11-15T14:29:43;9.37;;;4.50;;
72087;SDS011;59961;50.232;8.616;2022-11-15T14:32:14;10.73;;;4.87;;
72087;SDS011;59961;50.232;8.616;2022-11-15T14:34:40;10.18;;;4.65;;
72087;SDS011;59961;50.232;8.616;2022-11-15T14:37:19;11.20;;;4.67;;
72087;SDS011;59961;50.232;8.616;2022-11-15T14:39:45;11.07;;;4.85;;
72087;SDS011;59961;50.232;8.616;2022-11-15T14:42:20;8.80;;;4.47;;
72087;SDS011;59961;50.232;8.616;2022-11-15T14:44:58;8.45;;;4.43;;
72087;SDS011;59961;50.232;8.616;2022-11-15T14:47:23;8.93;;;4.57;;
72087;SDS011;59961;50.232;8.616;2022-11-15T14:49:49;8.87;;;4.60;;
72087;SDS011;59961;50.232;8.616;2022-11-15T14:52:24;9.90;;;4.97;;
72087;SDS011;59961;50.232;8.616;2022-11-15T14:55:00;10.93;;;4.88;;
72087;SDS011;59961;50.232;8.616;2022-11-15T14:57:27;10.43;;;4.60;;
72087;SDS011;59961;50.232;8.616;2022-11-15T14:59:52;10.32;;;5.30;;
72087;SDS011;59961;50.232;8.616;2022-11-15T15:02:19;10.63;;;5.30;;
72087;SDS011;59961;50.232;8.616;2022-11-15T15:04:44;10.38;;;4.32;;
72087;SDS011;59961;50.232;8.616;2022-11-15T15:07:10;9.53;;;5.07;;
72087;SDS011;59961;50.232;8.616;2022-11-15T15:09:35;8.77;;;4.53;;
72087;SDS011;59961;50.232;8.616;2022-11-15T15:12:00;12.10;;;5.07;;
72087;SDS011;59961;50.232;8.616;2022-11-15T15:14:26;10.93;;;4.40;;
72087;SDS011;59961;50.232;8.616;2022-11-15T15:16:52;10.23;;;4.15;;
72087;SDS011;59961;50.232;8.616;2022-11-15T15:19:17;11.93;;;4.60;;
72087;SDS011;59961;50.232;8.616;2022-11-15T15:21:45;14.20;;;5.03;;
72087;SDS011;59961;50.232;8.616;2022-11-15T15:24:13;10.07;;;4.60;;
72087;SDS011;59961;50.232;8.616;2022-11-15T15:26:47;11.23;;;4.93;;
72087;SDS011;59961;50.232;8.616;2022-11-15T15:29:14;11.00;;;5.20;;
72087;SDS011;59961;50.232;8.616;2022-11-15T15:31:43;11.15;;;5.18;;
72087;SDS011;59961;50.232;8.616;2022-11-15T15:34:09;9.70;;;5.18;;
72087;SDS011;59961;50.232;8.616;2022-11-15T15:36:37;9.67;;;4.67;;
72087;SDS011;59961;50.232;8.616;2022-11-15T15:39:02;11.33;;;4.40;;
72087;SDS011;59961;50.232;8.616;2022-11-15T15:41:28;9.23;;;5.03;;
72087;SDS011;59961;50.232;8.616;2022-11-15T15:43:54;10.60;;;5.20;;
72087;SDS011;59961;50.232;8.616;2022-11-15T15:46:19;9.67;;;4.57;;
72087;SDS011;59961;50.232;8.616;2022-11-15T15:48:44;9.10;;;4.88;;
72087;SDS011;59961;50.232;8.616;2022-11-15T15:51:10;8.83;;;4.50;;
72087;SDS011;59961;50.232;8.616;2022-11-15T15:53:35;8.77;;;4.50;;
72087;SDS011;59961;50.232;8.616;2022-11-15T16:05:20;8.93;;;4.00;;
72087;SDS011;59961;50.232;8.616;2022-11-15T16:07:49;10.05;;;4.78;;
72087;SDS011;59961;50.232;8.616;2022-11-15T16:10:22;12.13;;;5.80;;
72087;SDS011;59961;50.232;8.616;2022-11-15T16:12:52;10.53;;;5.13;;
72087;SDS011;59961;50.232;8.616;2022-11-15T16:15:18;9.90;;;5.35;;
72087;SDS011;59961;50.232;8.616;2022-11-15T16:17:57;10.68;;;5.15;;
72087;SDS011;59961;50.232;8.616;2022-11-15T16:20:29;13.95;;;5.28;;
72087;SDS011;59961;50.232;8.616;2022-11-15T16:22:56;9.23;;;4.85;;